Time,TemperatureF,DewpointF,PressureIn,WindDirection,WindDirectionDegrees,WindSpeedMPH,WindSpeedGustMPH,Humidity,HourlyPrecipIn,Conditions,Clouds,dailyrainin,SoftwareType,DateUTC
2013-07-27 00:01:00,66.3,63.0,29.90,West,268,1.0,2.0,89,0.00,,,0.00,Wunderground v.1.12,2013-07-27 04:01:00,
2013-07-27 00:03:00,66.9,63.9,29.90,West,270,3.0,10.0,90,0.00,,,0.00,Wunderground v.1.12,2013-07-27 04:03:00,
2013-07-27 00:04:00,66.3,63.0,29.90,West,268,1.0,2.0,89,0.00,,,0.00,Wunderground v.1.12,2013-07-27 04:04:00,
2013-07-27 00:10:00,66.1,62.4,29.90,West,268,1.0,1.0,88,0.00,,,0.00,Wunderground v.1.12,2013-07-27 04:10:00,
2013-07-27 00:16:00,66.0,62.7,29.90,West,268,0.0,1.0,89,0.00,,,0.00,Wunderground v.1.12,2013-07-27 04:16:00,
2013-07-27 00:23:00,65.8,62.5,29.90,West,268,0.0,1.0,89,0.00,,,0.00,Wunderground v.1.12,2013-07-27 04:23:00,
2013-07-27 00:28:00,65.6,62.3,29.90,West,268,1.0,4.0,89,0.00,,,0.00,Wunderground v.1.12,2013-07-27 04:28:00,
2013-07-27 00:34:00,65.5,62.2,29.90,West,268,2.0,3.0,89,0.00,,,0.00,Wunderground v.1.12,2013-07-27 04:34:00,
2013-07-27 00:39:00,65.3,62.0,29.90,West,268,1.0,1.0,89,0.00,,,0.00,Wunderground v.1.12,2013-07-27 04:39:00,
2013-07-27 00:44:00,65.3,62.0,29.90,West,268,1.0,5.0,89,0.00,,,0.00,Wunderground v.1.12,2013-07-27 04:44:00,
2013-07-27 00:49:00,65.2,61.9,29.90,West,268,1.0,1.0,89,0.00,,,0.00,Wunderground v.1.12,2013-07-27 04:49:00,
2013-07-27 00:55:00,65.0,61.7,29.90,West,268,2.0,2.0,89,0.00,,,0.00,Wunderground v.1.12,2013-07-27 04:55:00,
2013-07-27 01:00:00,65.0,61.7,29.90,West,268,2.0,2.0,89,0.00,,,0.00,Wunderground v.1.12,2013-07-27 05:00:00,
2013-07-27 01:06:00,64.8,61.8,29.90,West,269,2.0,2.0,90,0.00,,,0.00,Wunderground v.1.12,2013-07-27 05:06:00,
2013-07-27 01:13:00,64.7,61.4,29.90,West,269,2.0,4.0,89,0.00,,,0.00,Wunderground v.1.12,2013-07-27 05:13:00,
2013-07-27 01:18:00,64.7,61.7,29.90,West,269,1.0,3.0,90,0.00,,,0.00,Wunderground v.1.12,2013-07-27 05:18:00,
2013-07-27 01:23:00,64.5,61.5,29.90,West,269,1.0,3.0,90,0.00,,,0.00,Wunderground v.1.12,2013-07-27 05:23:00,
2013-07-27 01:28:00,64.3,61.3,29.90,West,269,1.0,1.0,90,0.00,,,0.00,Wunderground v.1.12,2013-07-27 05:28:00,
2013-07-27 01:33:00,64.8,61.5,29.90,West,270,1.0,6.0,89,0.00,,,0.00,Wunderground v.1.12,2013-07-27 05:33:00,
2013-07-27 01:38:00,63.9,61.2,29.90,West,269,0.0,1.0,91,0.00,,,0.00,Wunderground v.1.12,2013-07-27 05:38:00,
2013-07-27 01:44:00,63.7,61.0,29.90,West,269,1.0,1.0,91,0.00,,,0.00,Wunderground v.1.12,2013-07-27 05:44:00,
2013-07-27 01:49:00,63.5,61.1,29.89,West,269,1.0,1.0,92,0.00,,,0.00,Wunderground v.1.12,2013-07-27 05:49:00,
2013-07-27 01:54:00,63.5,61.1,29.89,West,269,0.0,0.0,92,0.00,,,0.00,Wunderground v.1.12,2013-07-27 05:54:00,
2013-07-27 02:00:00,63.4,61.0,29.89,West,269,0.0,3.0,92,0.00,,,0.00,Wunderground v.1.12,2013-07-27 06:00:00,
2013-07-27 02:05:00,63.2,60.8,29.90,West,269,1.0,1.0,92,0.00,,,0.00,Wunderground v.1.12,2013-07-27 06:05:00,
2013-07-27 02:11:00,63.1,60.7,29.90,West,268,1.0,6.0,92,0.00,,,0.00,Wunderground v.1.12,2013-07-27 06:11:00,
2013-07-27 02:18:00,63.1,60.7,29.89,West,268,2.0,4.0,92,0.00,,,0.00,Wunderground v.1.12,2013-07-27 06:18:00,
2013-07-27 02:23:00,62.9,60.5,29.89,West,267,2.0,5.0,92,0.00,,,0.00,Wunderground v.1.12,2013-07-27 06:23:00,
2013-07-27 02:28:00,62.9,60.5,29.89,West,267,2.0,4.0,92,0.00,,,0.00,Wunderground v.1.12,2013-07-27 06:28:00,
2013-07-27 02:33:00,62.9,60.5,29.90,West,267,2.0,5.0,92,0.00,,,0.00,Wunderground v.1.12,2013-07-27 06:33:00,
2013-07-27 02:39:00,62.9,60.2,29.90,West,275,2.0,2.0,91,0.00,,,0.00,Wunderground v.1.12,2013-07-27 06:39:00,
2013-07-27 02:45:00,62.9,60.2,29.90,West,273,2.0,3.0,91,0.00,,,0.00,Wunderground v.1.12,2013-07-27 06:45:00,
2013-07-27 02:50:00,62.7,60.0,29.90,West,273,2.0,2.0,91,0.00,,,0.00,Wunderground v.1.12,2013-07-27 06:50:00,
2013-07-27 02:56:00,62.6,59.9,29.90,West,273,2.0,3.0,91,0.00,,,0.00,Wunderground v.1.12,2013-07-27 06:56:00,
2013-07-27 03:01:00,62.6,59.9,29.90,West,260,3.0,6.0,91,0.00,,,0.00,Wunderground v.1.12,2013-07-27 07:01:00,
2013-07-27 03:08:00,62.4,59.7,29.90,West,261,3.0,6.0,91,0.00,,,0.00,Wunderground v.1.12,2013-07-27 07:08:00,
2013-07-27 03:13:00,62.4,59.7,29.90,West,266,3.0,5.0,91,0.00,,,0.00,Wunderground v.1.12,2013-07-27 07:13:00,
2013-07-27 03:19:00,62.6,59.9,29.90,West,267,2.0,2.0,91,0.00,,,0.00,Wunderground v.1.12,2013-07-27 07:19:00,
2013-07-27 03:25:00,62.6,59.6,29.90,West,267,2.0,2.0,90,0.00,,,0.00,Wunderground v.1.12,2013-07-27 07:25:00,
2013-07-27 03:30:00,62.6,59.6,29.90,West,268,2.0,3.0,90,0.00,,,0.00,Wunderground v.1.12,2013-07-27 07:30:00,
2013-07-27 03:37:00,62.6,59.6,29.90,West,261,4.0,7.0,90,0.00,,,0.00,Wunderground v.1.12,2013-07-27 07:37:00,
2013-07-27 03:43:00,62.6,59.6,29.90,West,274,4.0,6.0,90,0.00,,,0.00,Wunderground v.1.12,2013-07-27 07:43:00,
2013-07-27 03:48:00,62.6,59.3,29.91,West,279,3.0,4.0,89,0.00,,,0.00,Wunderground v.1.12,2013-07-27 07:48:00,
2013-07-27 03:53:00,62.4,59.4,29.91,West,279,1.0,3.0,90,0.00,,,0.00,Wunderground v.1.12,2013-07-27 07:53:00,
2013-07-27 03:58:00,62.4,59.4,29.91,West,279,1.0,3.0,90,0.00,,,0.00,Wunderground v.1.12,2013-07-27 07:58:00,
2013-07-27 04:03:00,62.3,59.3,29.91,West,281,1.0,2.0,90,0.00,,,0.00,Wunderground v.1.12,2013-07-27 08:03:00,
2013-07-27 04:09:00,62.1,59.1,29.91,West,279,2.0,2.0,90,0.00,,,0.00,Wunderground v.1.12,2013-07-27 08:09:00,
2013-07-27 04:14:00,62.0,59.0,29.91,West,279,2.0,2.0,90,0.00,,,0.00,Wunderground v.1.12,2013-07-27 08:14:00,
2013-07-27 04:20:00,61.8,59.1,29.91,West,279,1.0,2.0,91,0.00,,,0.00,Wunderground v.1.12,2013-07-27 08:20:00,
2013-07-27 04:26:00,61.6,58.9,29.91,West,279,1.0,1.0,91,0.00,,,0.00,Wunderground v.1.12,2013-07-27 08:26:00,
2013-07-27 04:33:00,62.3,59.3,29.91,West,270,2.0,11.0,90,0.00,,,0.00,Wunderground v.1.12,2013-07-27 08:33:00,
2013-07-27 04:38:00,61.5,58.8,29.91,West,278,2.0,4.0,91,0.00,,,0.00,Wunderground v.1.12,2013-07-27 08:38:00,
2013-07-27 04:43:00,61.3,59.0,29.91,West,277,2.0,3.0,92,0.00,,,0.00,Wunderground v.1.12,2013-07-27 08:43:00,
2013-07-27 04:49:00,61.2,58.9,29.91,West,277,2.0,2.0,92,0.00,,,0.00,Wunderground v.1.12,2013-07-27 08:49:00,
2013-07-27 04:54:00,61.2,58.9,29.91,West,277,1.0,1.0,92,0.00,,,0.00,Wunderground v.1.12,2013-07-27 08:54:00,
2013-07-27 05:00:00,61.0,58.7,29.91,West,277,1.0,2.0,92,0.00,,,0.00,Wunderground v.1.12,2013-07-27 09:00:00,
2013-07-27 05:06:00,61.6,58.9,29.91,West,270,1.0,6.0,91,0.00,,,0.00,Wunderground v.1.12,2013-07-27 09:06:00,
2013-07-27 05:11:00,61.0,58.7,29.91,West,276,2.0,2.0,92,0.00,,,0.00,Wunderground v.1.12,2013-07-27 09:11:00,
2013-07-27 05:16:00,61.0,58.7,29.91,West,276,2.0,3.0,92,0.00,,,0.00,Wunderground v.1.12,2013-07-27 09:16:00,
2013-07-27 05:21:00,61.2,58.9,29.91,West,275,2.0,2.0,92,0.00,,,0.00,Wunderground v.1.12,2013-07-27 09:21:00,
2013-07-27 05:28:00,61.0,58.4,29.91,West,275,1.0,4.0,91,0.00,,,0.00,Wunderground v.1.12,2013-07-27 09:28:00,
2013-07-27 05:33:00,61.2,58.9,29.91,West,270,2.0,6.0,92,0.00,,,0.00,Wunderground v.1.12,2013-07-27 09:33:00,
2013-07-27 05:34:00,60.9,58.6,29.92,West,275,1.0,4.0,92,0.00,,,0.00,Wunderground v.1.12,2013-07-27 09:34:00,
2013-07-27 05:40:00,60.9,58.6,29.92,West,275,1.0,3.0,92,0.00,,,0.00,Wunderground v.1.12,2013-07-27 09:40:00,
2013-07-27 05:46:00,60.7,58.4,29.93,West,275,1.0,1.0,92,0.00,,,0.00,Wunderground v.1.12,2013-07-27 09:46:00,
2013-07-27 05:53:00,60.7,58.4,29.93,West,275,1.0,2.0,92,0.00,,,0.00,Wunderground v.1.12,2013-07-27 09:53:00,
2013-07-27 05:58:00,60.7,58.7,29.93,West,275,2.0,5.0,93,0.00,,,0.00,Wunderground v.1.12,2013-07-27 09:58:00,
2013-07-27 06:03:00,60.7,58.4,29.93,West,274,2.0,2.0,92,0.00,,,0.00,Wunderground v.1.12,2013-07-27 10:03:00,
2013-07-27 06:09:00,60.9,58.6,29.93,West,274,2.0,2.0,92,0.00,,,0.00,Wunderground v.1.12,2013-07-27 10:09:00,
2013-07-27 06:14:00,60.9,58.6,29.93,West,274,1.0,1.0,92,0.00,,,0.00,Wunderground v.1.12,2013-07-27 10:14:00,
2013-07-27 06:20:00,61.0,58.7,29.93,West,274,1.0,2.0,92,0.00,,,0.00,Wunderground v.1.12,2013-07-27 10:20:00,
2013-07-27 06:25:00,61.0,58.7,29.93,West,274,1.0,2.0,92,0.00,,,0.00,Wunderground v.1.12,2013-07-27 10:25:00,
2013-07-27 06:33:00,60.7,58.7,29.93,West,270,1.0,6.0,93,0.00,,,0.00,Wunderground v.1.12,2013-07-27 10:33:00,
2013-07-27 06:38:00,61.3,59.0,29.94,West,274,1.0,3.0,92,0.00,,,0.00,Wunderground v.1.12,2013-07-27 10:38:00,
2013-07-27 06:43:00,61.5,58.8,29.94,West,273,1.0,4.0,91,0.00,,,0.00,Wunderground v.1.12,2013-07-27 10:43:00,
2013-07-27 06:48:00,61.6,58.9,29.94,West,273,1.0,3.0,91,0.00,,,0.00,Wunderground v.1.12,2013-07-27 10:48:00,
2013-07-27 06:53:00,61.8,59.1,29.94,West,273,1.0,2.0,91,0.00,,,0.00,Wunderground v.1.12,2013-07-27 10:53:00,
2013-07-27 06:58:00,62.0,59.0,29.94,West,273,1.0,3.0,90,0.00,,,0.00,Wunderground v.1.12,2013-07-27 10:58:00,
2013-07-27 07:04:00,62.3,59.0,29.94,West,274,1.0,5.0,89,0.00,,,0.00,Wunderground v.1.12,2013-07-27 11:04:00,
2013-07-27 07:09:00,62.9,59.0,29.94,West,263,3.0,4.0,87,0.00,,,0.00,Wunderground v.1.12,2013-07-27 11:09:00,
2013-07-27 07:14:00,63.4,59.1,29.94,West,267,4.0,4.0,86,0.00,,,0.00,Wunderground v.1.12,2013-07-27 11:14:00,
2013-07-27 07:20:00,64.0,59.1,29.94,West,271,3.0,5.0,84,0.00,,,0.00,Wunderground v.1.12,2013-07-27 11:20:00,
2013-07-27 07:25:00,64.5,59.2,29.94,WNW,282,3.0,5.0,83,0.00,,,0.00,Wunderground v.1.12,2013-07-27 11:25:00,
2013-07-27 07:31:00,64.8,59.2,29.94,West,276,3.0,9.0,82,0.00,,,0.00,Wunderground v.1.12,2013-07-27 11:31:00,
2013-07-27 07:36:00,65.3,59.3,29.94,West,273,3.0,3.0,81,0.00,,,0.00,Wunderground v.1.12,2013-07-27 11:36:00,
2013-07-27 07:41:00,65.5,59.2,29.94,WSW,247,3.0,9.0,80,0.00,,,0.00,Wunderground v.1.12,2013-07-27 11:41:00,
2013-07-27 07:48:00,66.1,59.4,29.95,West,273,4.0,8.0,79,0.00,,,0.00,Wunderground v.1.12,2013-07-27 11:48:00,
2013-07-27 07:53:00,66.4,59.7,29.95,WSW,252,4.0,9.0,79,0.00,,,0.00,Wunderground v.1.12,2013-07-27 11:53:00,
2013-07-27 07:58:00,66.8,59.7,29.95,WSW,257,4.0,4.0,78,0.00,,,0.00,Wunderground v.1.12,2013-07-27 11:58:00,
2013-07-27 08:04:00,67.1,60.4,29.95,West,259,2.0,2.0,79,0.00,,,0.00,Wunderground v.1.12,2013-07-27 12:04:00,
2013-07-27 08:09:00,67.3,59.8,29.95,West,261,1.0,4.0,77,0.00,,,0.00,Wunderground v.1.12,2013-07-27 12:09:00,
2013-07-27 08:14:00,67.6,60.5,29.95,West,262,2.0,2.0,78,0.00,,,0.00,Wunderground v.1.12,2013-07-27 12:14:00,
2013-07-27 08:19:00,68.1,60.6,29.95,West,263,2.0,2.0,77,0.00,,,0.00,Wunderground v.1.12,2013-07-27 12:19:00,
2013-07-27 08:24:00,68.3,60.4,29.95,West,261,3.0,3.0,76,0.00,,,0.00,Wunderground v.1.12,2013-07-27 12:24:00,
2013-07-27 08:30:00,68.6,60.7,29.95,West,260,3.0,4.0,76,0.00,,,0.00,Wunderground v.1.12,2013-07-27 12:30:00,
2013-07-27 08:35:00,68.9,61.0,29.96,West,275,3.0,5.0,76,0.00,,,0.00,Wunderground v.1.12,2013-07-27 12:35:00,
2013-07-27 08:41:00,69.1,60.8,29.96,West,265,4.0,5.0,75,0.00,,,0.00,Wunderground v.1.12,2013-07-27 12:41:00,
2013-07-27 08:48:00,69.4,61.1,29.96,WSW,252,3.0,6.0,75,0.00,,,0.00,Wunderground v.1.12,2013-07-27 12:48:00,
2013-07-27 08:53:00,69.8,60.8,29.96,West,275,3.0,5.0,73,0.00,,,0.00,Wunderground v.1.12,2013-07-27 12:53:00,
2013-07-27 08:58:00,69.9,60.5,29.96,WSW,248,4.0,9.0,72,0.00,,,0.00,Wunderground v.1.12,2013-07-27 12:58:00,
2013-07-27 09:04:00,70.3,60.8,29.96,WSW,257,5.0,7.0,72,0.00,,,0.00,Wunderground v.1.12,2013-07-27 13:04:00,
2013-07-27 09:09:00,70.8,61.3,29.96,West,267,4.0,4.0,72,0.00,,,0.00,Wunderground v.1.12,2013-07-27 13:09:00,
2013-07-27 09:15:00,71.3,61.0,29.96,WNW,297,4.0,4.0,70,0.00,,,0.00,Wunderground v.1.12,2013-07-27 13:15:00,
2013-07-27 09:20:00,71.5,61.6,29.96,WNW,284,3.0,5.0,71,0.00,,,0.00,Wunderground v.1.12,2013-07-27 13:20:00,
2013-07-27 09:25:00,71.6,61.3,29.96,WNW,302,5.0,5.0,70,0.00,,,0.00,Wunderground v.1.12,2013-07-27 13:25:00,
2013-07-27 09:33:00,70.3,60.8,29.96,West,270,4.0,11.0,72,0.00,,,0.00,Wunderground v.1.12,2013-07-27 13:33:00,
2013-07-27 09:38:00,72.3,61.1,29.96,WSW,255,4.0,7.0,68,0.00,,,0.00,Wunderground v.1.12,2013-07-27 13:38:00,
2013-07-27 09:44:00,72.7,61.9,29.96,West,276,4.0,4.0,69,0.00,,,0.00,Wunderground v.1.12,2013-07-27 13:44:00,
2013-07-27 09:50:00,73.0,61.0,29.96,WNW,295,4.0,6.0,66,0.00,,,0.00,Wunderground v.1.12,2013-07-27 13:50:00,
2013-07-27 09:55:00,73.3,62.9,29.96,West,263,4.0,5.0,70,0.00,,,0.00,Wunderground v.1.12,2013-07-27 13:55:00,
2013-07-27 10:01:00,73.5,61.0,29.96,WNW,288,3.0,7.0,65,0.00,,,0.00,Wunderground v.1.12,2013-07-27 14:01:00,
2013-07-27 10:06:00,73.7,61.6,29.96,West,261,4.0,9.0,66,0.00,,,0.00,Wunderground v.1.12,2013-07-27 14:06:00,
2013-07-27 10:13:00,74.0,61.5,29.96,WNW,285,3.0,6.0,65,0.00,,,0.00,Wunderground v.1.12,2013-07-27 14:13:00,
2013-07-27 10:18:00,74.4,61.4,29.96,WNW,288,3.0,5.0,64,0.00,,,0.00,Wunderground v.1.12,2013-07-27 14:18:00,
2013-07-27 10:23:00,74.6,60.7,29.96,NW,307,4.0,6.0,62,0.00,,,0.00,Wunderground v.1.12,2013-07-27 14:23:00,
2013-07-27 10:29:00,74.9,61.5,29.96,WNW,291,4.0,4.0,63,0.00,,,0.00,Wunderground v.1.12,2013-07-27 14:29:00,
2013-07-27 10:34:00,74.9,61.0,29.96,West,270,4.0,4.0,62,0.00,,,0.00,Wunderground v.1.12,2013-07-27 14:34:00,
2013-07-27 10:40:00,75.3,60.5,29.96,West,278,5.0,5.0,60,0.00,,,0.00,Wunderground v.1.12,2013-07-27 14:40:00,
2013-07-27 10:45:00,75.4,59.6,29.96,West,281,5.0,10.0,58,0.00,,,0.00,Wunderground v.1.12,2013-07-27 14:45:00,
2013-07-27 10:51:00,75.6,61.2,29.96,West,261,5.0,8.0,61,0.00,,,0.00,Wunderground v.1.12,2013-07-27 14:51:00,
2013-07-27 10:56:00,76.0,59.7,29.96,WNW,292,5.0,6.0,57,0.00,,,0.00,Wunderground v.1.12,2013-07-27 14:56:00,
2013-07-27 11:03:00,74.9,60.1,29.96,WNW,293,4.0,12.0,60,0.00,,,0.00,Wunderground v.1.12,2013-07-27 15:03:00,
2013-07-27 11:08:00,76.3,58.4,29.96,WNW,288,6.0,9.0,54,0.00,,,0.00,Wunderground v.1.12,2013-07-27 15:08:00,
2013-07-27 11:13:00,76.7,59.8,29.96,West,271,5.0,7.0,56,0.00,,,0.00,Wunderground v.1.12,2013-07-27 15:13:00,
2013-07-27 11:18:00,76.8,59.4,29.96,WNW,298,5.0,10.0,55,0.00,,,0.00,Wunderground v.1.12,2013-07-27 15:18:00,
2013-07-27 11:24:00,77.2,59.8,29.96,WNW,286,6.0,6.0,55,0.00,,,0.00,Wunderground v.1.12,2013-07-27 15:24:00,
2013-07-27 11:29:00,77.4,61.0,29.96,WNW,292,5.0,5.0,57,0.00,,,0.00,Wunderground v.1.12,2013-07-27 15:29:00,
2013-07-27 11:34:00,78.1,61.6,29.96,WNW,290,3.0,4.0,57,0.00,,,0.00,Wunderground v.1.12,2013-07-27 15:34:00,
2013-07-27 11:39:00,78.5,61.5,29.96,WNW,290,3.0,6.0,56,0.00,,,0.00,Wunderground v.1.12,2013-07-27 15:39:00,
2013-07-27 11:45:00,78.6,62.1,29.96,WSW,252,4.0,4.0,57,0.00,,,0.00,Wunderground v.1.12,2013-07-27 15:45:00,
2013-07-27 11:50:00,78.8,62.3,29.96,WSW,250,3.0,4.0,57,0.00,,,0.00,Wunderground v.1.12,2013-07-27 15:50:00,
2013-07-27 11:55:00,79.4,60.2,29.96,West,281,3.0,6.0,52,0.00,,,0.00,Wunderground v.1.12,2013-07-27 15:55:00,
2013-07-27 12:01:00,79.2,61.1,29.96,West,266,4.0,4.0,54,0.00,,,0.00,Wunderground v.1.12,2013-07-27 16:01:00,
2013-07-27 12:08:00,78.8,60.7,29.96,West,274,5.0,5.0,54,0.00,,,0.00,Wunderground v.1.12,2013-07-27 16:08:00,
2013-07-27 12:13:00,79.6,60.4,29.96,WSW,257,4.0,5.0,52,0.00,,,0.00,Wunderground v.1.12,2013-07-27 16:13:00,
2013-07-27 12:18:00,79.6,59.9,29.96,WSW,252,4.0,5.0,51,0.00,,,0.00,Wunderground v.1.12,2013-07-27 16:18:00,
2013-07-27 12:26:00,79.6,59.3,29.96,WNW,286,4.0,4.0,50,0.00,,,0.00,Wunderground v.1.12,2013-07-27 16:26:00,
2013-07-27 12:31:00,79.6,59.9,29.96,WNW,286,5.0,5.0,51,0.00,,,0.00,Wunderground v.1.12,2013-07-27 16:31:00,
2013-07-27 12:38:00,80.1,62.0,29.96,West,278,3.0,5.0,54,0.00,,,0.00,Wunderground v.1.12,2013-07-27 16:38:00,
2013-07-27 12:43:00,80.1,60.3,29.96,WSW,240,3.0,6.0,51,0.00,,,0.00,Wunderground v.1.12,2013-07-27 16:43:00,
2013-07-27 12:48:00,79.9,59.6,29.95,WSW,244,4.0,6.0,50,0.00,,,0.00,Wunderground v.1.12,2013-07-27 16:48:00,
2013-07-27 12:53:00,80.5,60.7,29.95,West,267,3.0,5.0,51,0.00,,,0.00,Wunderground v.1.12,2013-07-27 16:53:00,
2013-07-27 12:59:00,80.7,59.2,29.95,West,268,3.0,3.0,48,0.00,,,0.00,Wunderground v.1.12,2013-07-27 16:59:00,
2013-07-27 13:05:00,80.5,59.6,29.95,West,277,4.0,4.0,49,0.00,,,0.00,Wunderground v.1.12,2013-07-27 17:05:00,
2013-07-27 13:10:00,81.1,59.6,29.95,West,277,4.0,4.0,48,0.00,,,0.00,Wunderground v.1.12,2013-07-27 17:10:00,
2013-07-27 13:16:00,81.6,60.6,29.95,South,186,2.0,6.0,49,0.00,,,0.00,Wunderground v.1.12,2013-07-27 17:16:00,
2013-07-27 13:21:00,81.6,58.8,29.94,WSW,258,2.0,7.0,46,0.00,,,0.00,Wunderground v.1.12,2013-07-27 17:21:00,
2013-07-27 13:28:00,81.8,60.8,29.94,West,259,3.0,3.0,49,0.00,,,0.00,Wunderground v.1.12,2013-07-27 17:28:00,
2013-07-27 13:33:00,80.7,59.2,29.94,West,270,3.0,12.0,48,0.00,,,0.00,Wunderground v.1.12,2013-07-27 17:33:00,
2013-07-27 13:38:00,82.6,59.1,29.94,WNW,302,3.0,10.0,45,0.00,,,0.00,Wunderground v.1.12,2013-07-27 17:38:00,
2013-07-27 13:43:00,82.2,59.4,29.94,West,280,3.0,3.0,46,0.00,,,0.00,Wunderground v.1.12,2013-07-27 17:43:00,
2013-07-27 13:48:00,81.8,59.6,29.94,West,267,4.0,9.0,47,0.00,,,0.00,Wunderground v.1.12,2013-07-27 17:48:00,
2013-07-27 13:53:00,81.6,60.0,29.94,West,266,3.0,4.0,48,0.00,,,0.00,Wunderground v.1.12,2013-07-27 17:53:00,
2013-07-27 13:59:00,82.2,60.0,29.94,WSW,256,2.0,2.0,47,0.00,,,0.00,Wunderground v.1.12,2013-07-27 17:59:00,
2013-07-27 14:04:00,82.6,59.1,29.94,WNW,282,3.0,3.0,45,0.00,,,0.00,Wunderground v.1.12,2013-07-27 18:04:00,
2013-07-27 14:10:00,83.0,58.8,29.94,West,272,2.0,6.0,44,0.00,,,0.00,Wunderground v.1.12,2013-07-27 18:10:00,
2013-07-27 14:13:00,82.8,59.3,29.94,WNW,298,3.0,6.0,45,0.00,,,0.00,Wunderground v.1.12,2013-07-27 18:13:00,
2013-07-27 14:18:00,82.2,58.7,29.94,West,273,4.0,9.0,45,0.00,,,0.00,Wunderground v.1.12,2013-07-27 18:18:00,
2013-07-27 14:23:00,81.6,57.6,29.94,West,271,4.0,10.0,44,0.00,,,0.00,Wunderground v.1.12,2013-07-27 18:23:00,
2013-07-27 14:28:00,81.8,61.9,29.94,West,269,3.0,5.0,51,0.00,,,0.00,Wunderground v.1.12,2013-07-27 18:28:00,
2013-07-27 14:33:00,82.2,62.3,29.94,South,175,2.0,10.0,51,0.00,,,0.00,Wunderground v.1.12,2013-07-27 18:33:00,
2013-07-27 14:39:00,83.2,60.9,29.94,WSW,241,2.0,2.0,47,0.00,,,0.00,Wunderground v.1.12,2013-07-27 18:39:00,
2013-07-27 14:45:00,84.0,61.0,29.94,West,271,2.0,3.0,46,0.00,,,0.00,Wunderground v.1.12,2013-07-27 18:45:00,
2013-07-27 14:51:00,83.6,60.6,29.94,WNW,288,2.0,5.0,46,0.00,,,0.00,Wunderground v.1.12,2013-07-27 18:51:00,
2013-07-27 14:58:00,83.4,64.5,29.94,SW,234,3.0,10.0,53,0.00,,,0.00,Wunderground v.1.12,2013-07-27 18:58:00,
2013-07-27 15:03:00,83.4,61.7,29.93,WNW,300,3.0,3.0,48,0.00,,,0.00,Wunderground v.1.12,2013-07-27 19:03:00,
2013-07-27 15:08:00,83.6,61.2,29.93,WNW,291,2.0,4.0,47,0.00,,,0.00,Wunderground v.1.12,2013-07-27 19:08:00,
2013-07-27 15:14:00,84.1,59.8,29.93,SSE,159,2.0,2.0,44,0.00,,,0.00,Wunderground v.1.12,2013-07-27 19:14:00,
2013-07-27 15:19:00,84.3,61.9,29.93,SW,233,2.0,3.0,47,0.00,,,0.00,Wunderground v.1.12,2013-07-27 19:19:00,
2013-07-27 15:25:00,83.2,61.5,29.93,WSW,250,4.0,5.0,48,0.00,,,0.00,Wunderground v.1.12,2013-07-27 19:25:00,
2013-07-27 15:31:00,83.2,59.6,29.93,West,274,4.0,7.0,45,0.00,,,0.00,Wunderground v.1.12,2013-07-27 19:31:00,
2013-07-27 15:36:00,82.4,60.1,29.93,West,269,4.0,9.0,47,0.00,,,0.00,Wunderground v.1.12,2013-07-27 19:36:00,
2013-07-27 15:43:00,83.4,61.1,29.93,WSW,248,4.0,5.0,47,0.00,,,0.00,Wunderground v.1.12,2013-07-27 19:43:00,
2013-07-27 15:48:00,84.3,61.9,29.93,WSW,246,1.0,3.0,47,0.00,,,0.00,Wunderground v.1.12,2013-07-27 19:48:00,
2013-07-27 15:53:00,84.9,62.4,29.93,South,178,1.0,2.0,47,0.00,,,0.00,Wunderground v.1.12,2013-07-27 19:53:00,
2013-07-27 15:58:00,85.1,64.9,29.93,West,281,2.0,2.0,51,0.00,,,0.00,Wunderground v.1.12,2013-07-27 19:58:00,
2013-07-27 16:03:00,84.9,65.9,29.93,West,278,1.0,2.0,53,0.00,,,0.00,Wunderground v.1.12,2013-07-27 20:03:00,
2013-07-27 16:09:00,84.7,66.7,29.93,SW,221,0.0,0.0,55,0.00,,,0.00,Wunderground v.1.12,2013-07-27 20:09:00,
2013-07-27 16:14:00,83.2,65.9,29.93,ESE,114,1.0,1.0,56,0.00,,,0.00,Wunderground v.1.12,2013-07-27 20:14:00,
2013-07-27 16:20:00,81.6,66.4,29.93,ESE,105,1.0,1.0,60,0.00,,,0.00,Wunderground v.1.12,2013-07-27 20:20:00,
2013-07-27 16:25:00,80.1,66.4,29.93,ESE,103,1.0,5.0,63,0.00,,,0.00,Wunderground v.1.12,2013-07-27 20:25:00,
2013-07-27 16:30:00,78.8,66.0,29.93,SSE,151,2.0,2.0,65,0.00,,,0.00,Wunderground v.1.12,2013-07-27 20:30:00,
2013-07-27 16:36:00,78.5,66.6,29.93,ENE,74,1.0,1.0,67,0.00,,,0.00,Wunderground v.1.12,2013-07-27 20:36:00,
2013-07-27 16:43:00,78.8,67.3,29.93,East,86,1.0,1.0,68,0.00,,,0.00,Wunderground v.1.12,2013-07-27 20:43:00,
2013-07-27 16:48:00,78.8,66.9,29.93,ESE,111,1.0,3.0,67,0.00,,,0.00,Wunderground v.1.12,2013-07-27 20:48:00,
2013-07-27 16:54:00,78.8,67.3,29.93,SE,131,1.0,3.0,68,0.00,,,0.00,Wunderground v.1.12,2013-07-27 20:54:00,
2013-07-27 17:00:00,78.8,67.3,29.93,ESE,107,1.0,1.0,68,0.00,,,0.00,Wunderground v.1.12,2013-07-27 21:00:00,
2013-07-27 17:06:00,78.8,67.3,29.92,East,87,1.0,1.0,68,0.00,,,0.00,Wunderground v.1.12,2013-07-27 21:06:00,
2013-07-27 17:13:00,79.0,67.1,29.92,ESE,121,0.0,2.0,67,0.00,,,0.00,Wunderground v.1.12,2013-07-27 21:13:00,
2013-07-27 17:18:00,79.0,67.1,29.92,ESE,103,1.0,3.0,67,0.00,,,0.00,Wunderground v.1.12,2013-07-27 21:18:00,
2013-07-27 17:23:00,78.6,67.6,29.92,East,79,1.0,4.0,69,0.00,,,0.00,Wunderground v.1.12,2013-07-27 21:23:00,
2013-07-27 17:28:00,78.1,67.5,29.92,East,93,1.0,4.0,70,0.00,,,0.00,Wunderground v.1.12,2013-07-27 21:28:00,
2013-07-27 17:33:00,78.3,67.7,29.92,East,93,1.0,1.0,70,0.00,,,0.00,Wunderground v.1.12,2013-07-27 21:33:00,
2013-07-27 17:39:00,78.5,67.9,29.92,East,93,0.0,0.0,70,0.00,,,0.00,Wunderground v.1.12,2013-07-27 21:39:00,
2013-07-27 17:45:00,78.5,67.5,29.92,ESE,119,0.0,0.0,69,0.00,,,0.00,Wunderground v.1.12,2013-07-27 21:45:00,
2013-07-27 17:51:00,78.1,67.5,29.91,East,93,1.0,1.0,70,0.00,,,0.00,Wunderground v.1.12,2013-07-27 21:51:00,
2013-07-27 17:58:00,77.7,67.5,29.91,ESE,104,1.0,1.0,71,0.00,,,0.00,Wunderground v.1.12,2013-07-27 21:58:00,
2013-07-27 18:03:00,78.1,67.5,29.92,East,90,1.0,6.0,70,0.00,,,0.00,Wunderground v.1.12,2013-07-27 22:03:00,
2013-07-27 18:08:00,77.6,67.4,29.91,ESE,115,0.0,4.0,71,0.00,,,0.00,Wunderground v.1.12,2013-07-27 22:08:00,
2013-07-27 18:13:00,77.6,67.4,29.91,East,90,0.0,0.0,71,0.00,,,0.00,Wunderground v.1.12,2013-07-27 22:13:00,
2013-07-27 18:18:00,77.4,67.3,29.91,East,96,0.0,2.0,71,0.00,,,0.00,Wunderground v.1.12,2013-07-27 22:18:00,
2013-07-27 18:23:00,76.8,67.1,29.91,ESE,102,1.0,2.0,72,0.00,,,0.00,Wunderground v.1.12,2013-07-27 22:23:00,
2013-07-27 18:29:00,76.5,67.2,29.91,East,98,1.0,1.0,73,0.00,,,0.00,Wunderground v.1.12,2013-07-27 22:29:00,
2013-07-27 18:35:00,76.1,67.2,29.91,East,96,0.0,1.0,74,0.00,,,0.00,Wunderground v.1.12,2013-07-27 22:35:00,
2013-07-27 18:40:00,75.8,67.3,29.91,East,96,0.0,0.0,75,0.00,,,0.00,Wunderground v.1.12,2013-07-27 22:40:00,
2013-07-27 18:46:00,75.4,67.3,29.91,East,96,0.0,0.0,76,0.00,,,0.00,Wunderground v.1.12,2013-07-27 22:46:00,
2013-07-27 18:51:00,75.1,67.0,29.91,East,96,0.0,0.0,76,0.00,,,0.00,Wunderground v.1.12,2013-07-27 22:51:00,
2013-07-27 18:58:00,74.7,67.0,29.91,East,97,0.0,2.0,77,0.00,,,0.00,Wunderground v.1.12,2013-07-27 22:58:00,
2013-07-27 19:03:00,76.3,67.4,29.91,ESE,113,0.0,5.0,74,0.00,,,0.00,Wunderground v.1.12,2013-07-27 23:03:00,
2013-07-27 19:08:00,74.6,66.5,29.91,East,97,0.0,0.0,76,0.00,,,0.00,Wunderground v.1.12,2013-07-27 23:08:00,
2013-07-27 19:13:00,74.6,66.9,29.91,East,96,0.0,0.0,77,0.00,,,0.00,Wunderground v.1.12,2013-07-27 23:13:00,
2013-07-27 19:19:00,74.2,66.5,29.91,East,96,0.0,0.0,77,0.00,,,0.00,Wunderground v.1.12,2013-07-27 23:19:00,
2013-07-27 19:24:00,74.0,66.3,29.91,East,96,0.0,1.0,77,0.00,,,0.00,Wunderground v.1.12,2013-07-27 23:24:00,
2013-07-27 19:29:00,73.9,66.2,29.91,East,96,0.0,0.0,77,0.00,,,0.00,Wunderground v.1.12,2013-07-27 23:29:00,
2013-07-27 19:35:00,73.7,66.0,29.91,East,96,0.0,0.0,77,0.00,,,0.00,Wunderground v.1.12,2013-07-27 23:35:00,
2013-07-27 19:41:00,73.5,65.8,29.91,East,96,0.0,0.0,77,0.00,,,0.00,Wunderground v.1.12,2013-07-27 23:41:00,
2013-07-27 19:46:00,73.3,65.7,29.91,East,96,0.0,0.0,77,0.00,,,0.00,Wunderground v.1.12,2013-07-27 23:46:00,
2013-07-27 19:53:00,73.2,65.6,29.91,East,96,0.0,0.0,77,0.00,,,0.00,Wunderground v.1.12,2013-07-27 23:53:00,
2013-07-27 19:58:00,73.0,65.7,29.91,East,96,0.0,0.0,78,0.00,,,0.00,Wunderground v.1.12,2013-07-27 23:58:00,
2013-07-27 20:03:00,72.8,65.5,29.91,East,96,0.0,0.0,78,0.00,,,0.00,Wunderground v.1.12,2013-07-28 00:03:00,
2013-07-27 20:08:00,72.7,66.2,29.91,East,96,0.0,0.0,80,0.00,,,0.00,Wunderground v.1.12,2013-07-28 00:08:00,
2013-07-27 20:14:00,72.3,65.8,29.91,East,96,0.0,0.0,80,0.00,,,0.00,Wunderground v.1.12,2013-07-28 00:14:00,
2013-07-27 20:19:00,72.1,65.6,29.92,East,96,0.0,0.0,80,0.00,,,0.00,Wunderground v.1.12,2013-07-28 00:19:00,
2013-07-27 20:24:00,72.0,65.5,29.92,East,96,0.0,0.0,80,0.00,,,0.00,Wunderground v.1.12,2013-07-28 00:24:00,
2013-07-27 20:29:00,71.8,65.3,29.92,East,96,0.0,0.0,80,0.00,,,0.00,Wunderground v.1.12,2013-07-28 00:29:00,
2013-07-27 20:34:00,71.6,65.5,29.93,East,96,0.0,0.0,81,0.00,,,0.00,Wunderground v.1.12,2013-07-28 00:34:00,
2013-07-27 20:39:00,71.5,65.4,29.93,East,96,0.0,0.0,81,0.00,,,0.00,Wunderground v.1.12,2013-07-28 00:39:00,
2013-07-27 20:45:00,71.1,65.0,29.93,East,96,0.0,0.0,81,0.00,,,0.00,Wunderground v.1.12,2013-07-28 00:45:00,
2013-07-27 20:50:00,70.9,65.5,29.93,East,96,0.0,0.0,83,0.00,,,0.00,Wunderground v.1.12,2013-07-28 00:50:00,
2013-07-27 20:58:00,70.6,65.2,29.93,East,96,0.0,0.0,83,0.00,,,0.00,Wunderground v.1.12,2013-07-28 00:58:00,
2013-07-27 21:03:00,71.8,65.7,29.93,N/A,-737280,0.0,0.0,81,0.00,,,0.00,Wunderground v.1.12,2013-07-28 01:03:00,
2013-07-27 21:08:00,70.3,65.2,29.94,East,96,0.0,0.0,84,0.00,,,0.00,Wunderground v.1.12,2013-07-28 01:08:00,
2013-07-27 21:13:00,70.1,65.4,29.94,East,96,0.0,0.0,85,0.00,,,0.00,Wunderground v.1.12,2013-07-28 01:13:00,
2013-07-27 21:18:00,69.9,65.2,29.94,East,96,0.0,0.0,85,0.00,,,0.00,Wunderground v.1.12,2013-07-28 01:18:00,
2013-07-27 21:23:00,69.9,65.2,29.94,East,96,0.0,0.0,85,0.00,,,0.00,Wunderground v.1.12,2013-07-28 01:23:00,
2013-07-27 21:29:00,69.8,65.1,29.94,East,96,0.0,0.0,85,0.00,,,0.00,Wunderground v.1.12,2013-07-28 01:29:00,
2013-07-27 21:34:00,69.6,65.2,29.94,East,96,0.0,0.0,86,0.00,,,0.00,Wunderground v.1.12,2013-07-28 01:34:00,
2013-07-27 21:40:00,69.4,65.0,29.94,East,96,0.0,0.0,86,0.00,,,0.00,Wunderground v.1.12,2013-07-28 01:40:00,
2013-07-27 21:45:00,69.4,65.0,29.94,East,96,0.0,0.0,86,0.00,,,0.00,Wunderground v.1.12,2013-07-28 01:45:00,
2013-07-27 21:50:00,69.4,65.0,29.94,East,96,0.0,0.0,86,0.00,,,0.00,Wunderground v.1.12,2013-07-28 01:50:00,
2013-07-27 21:56:00,69.8,65.4,29.94,East,96,0.0,0.0,86,0.00,,,0.00,Wunderground v.1.12,2013-07-28 01:56:00,
2013-07-27 22:01:00,69.8,65.4,29.94,East,96,0.0,0.0,86,0.00,,,0.00,Wunderground v.1.12,2013-07-28 02:01:00,
2013-07-27 22:08:00,69.6,65.2,29.94,N/A,-737280,0.0,0.0,86,0.00,,,0.00,Wunderground v.1.12,2013-07-28 02:08:00,
2013-07-27 22:13:00,69.9,65.2,29.93,East,96,0.0,0.0,85,0.00,,,0.00,Wunderground v.1.12,2013-07-28 02:13:00,
2013-07-27 22:19:00,69.9,65.2,29.93,East,96,0.0,0.0,85,0.00,,,0.00,Wunderground v.1.12,2013-07-28 02:19:00,
2013-07-27 22:24:00,69.8,65.1,29.93,East,96,0.0,0.0,85,0.00,,,0.00,Wunderground v.1.12,2013-07-28 02:24:00,
2013-07-27 22:29:00,69.6,65.2,29.93,East,96,0.0,0.0,86,0.00,,,0.00,Wunderground v.1.12,2013-07-28 02:29:00,
2013-07-27 22:35:00,69.3,64.9,29.94,East,96,0.0,0.0,86,0.00,,,0.00,Wunderground v.1.12,2013-07-28 02:35:00,
2013-07-27 22:41:00,69.3,65.3,29.94,East,96,0.0,0.0,87,0.00,,,0.00,Wunderground v.1.12,2013-07-28 02:41:00,
2013-07-27 22:48:00,69.3,64.9,29.94,South,175,0.0,0.0,86,0.00,,,0.00,Wunderground v.1.12,2013-07-28 02:48:00,
2013-07-27 22:54:00,69.4,65.0,29.94,South,175,0.0,0.0,86,0.00,,,0.00,Wunderground v.1.12,2013-07-28 02:54:00,
2013-07-27 22:59:00,69.6,65.2,29.94,South,175,0.0,1.0,86,0.00,,,0.00,Wunderground v.1.12,2013-07-28 02:59:00,
2013-07-27 23:05:00,69.6,64.9,29.94,SE,134,0.0,2.0,85,0.00,,,0.00,Wunderground v.1.12,2013-07-28 03:05:00,
2013-07-27 23:13:00,69.4,64.7,29.94,SSE,154,0.0,0.0,85,0.00,,,0.00,Wunderground v.1.12,2013-07-28 03:13:00,
2013-07-27 23:18:00,69.3,64.9,29.94,SW,227,0.0,0.0,86,0.00,,,0.00,Wunderground v.1.12,2013-07-28 03:18:00,
2013-07-27 23:23:00,69.1,64.7,29.94,SW,227,0.0,0.0,86,0.00,,,0.00,Wunderground v.1.12,2013-07-28 03:23:00,
2013-07-27 23:29:00,68.9,64.5,29.94,SSW,207,0.0,1.0,86,0.00,,,0.00,Wunderground v.1.12,2013-07-28 03:29:00,
2013-07-27 23:34:00,68.8,64.4,29.94,SSW,205,0.0,0.0,86,0.00,,,0.00,Wunderground v.1.12,2013-07-28 03:34:00,
2013-07-27 23:40:00,68.8,64.1,29.94,SSW,205,0.0,0.0,85,0.00,,,0.00,Wunderground v.1.12,2013-07-28 03:40:00,
2013-07-27 23:45:00,68.6,63.9,29.94,SSW,204,0.0,0.0,85,0.00,,,0.00,Wunderground v.1.12,2013-07-28 03:45:00,
2013-07-27 23:51:00,68.6,63.9,29.94,SSW,204,0.0,0.0,85,0.00,,,0.00,Wunderground v.1.12,2013-07-28 03:51:00,
2013-07-27 23:58:00,68.3,63.9,29.94,SSW,204,0.0,0.0,86,0.00,,,0.00,Wunderground v.1.12,2013-07-28 03:58:00,